createdAt,value
2019-05-02T00:01:23.665Z,78.97
2019-05-02T00:03:56.430Z,78.84
2019-05-02T00:06:29.724Z,78.95
2019-05-02T00:09:03.938Z,78.96
2019-05-02T00:11:39.082Z,78.87
2019-05-02T00:14:12.791Z,78.83
2019-05-02T00:16:49.312Z,78.44
2019-05-02T00:19:19.978Z,77.64
2019-05-02T00:21:53.266Z,77.57
2019-05-02T00:24:26.985Z,77.46
2019-05-02T00:27:01.301Z,77.69
2019-05-02T00:29:34.784Z,77.86
2019-05-02T00:32:07.572Z,78.31
2019-05-02T00:34:41.392Z,78.67
2019-05-02T00:37:14.067Z,79.02
2019-05-02T00:39:49.170Z,79.30
2019-05-02T00:42:22.507Z,79.52
2019-05-02T00:44:55.476Z,79.86
2019-05-02T00:47:47.723Z,79.85
2019-05-02T00:50:21.325Z,79.93
2019-05-02T00:52:53.998Z,80.09
2019-05-02T00:55:28.960Z,80.00
2019-05-02T00:58:02.116Z,79.92
2019-05-02T01:00:37.047Z,79.83
2019-05-02T01:03:11.054Z,79.72
2019-05-02T01:05:44.861Z,79.65
2019-05-02T01:08:17.553Z,79.63
2019-05-02T01:10:52.148Z,79.58
2019-05-02T01:13:26.907Z,79.67
2019-05-02T01:16:01.017Z,79.75
2019-05-02T01:18:37.142Z,79.97
2019-05-02T01:21:08.058Z,80.06
2019-05-02T01:23:40.679Z,80.28
2019-05-02T01:26:13.354Z,80.22
2019-05-02T01:28:49.132Z,80.26
2019-05-02T01:31:38.079Z,80.27
2019-05-02T01:34:28.776Z,80.27
2019-05-02T01:37:03.092Z,80.54
2019-05-02T01:39:37.932Z,80.75
2019-05-02T01:42:11.364Z,80.99
2019-05-02T01:44:44.000Z,81.40
2019-05-02T01:47:17.449Z,81.66
2019-05-02T01:49:51.961Z,82.08
2019-05-02T01:52:25.705Z,82.48
2019-05-02T01:54:58.408Z,82.55
2019-05-02T01:57:31.179Z,82.74
2019-05-02T02:00:09.593Z,83.12
2019-05-02T02:02:39.315Z,83.33
2019-05-02T02:05:12.088Z,83.69
2019-05-02T02:07:44.759Z,83.81
2019-05-02T02:10:19.805Z,84.17
2019-05-02T02:13:03.562Z,84.50
2019-05-02T02:15:29.088Z,84.87
2019-05-02T02:18:00.804Z,84.94
2019-05-02T02:20:45.189Z,85.16
2019-05-02T02:23:32.068Z,85.25
2019-05-02T02:26:13.879Z,85.35
2019-05-02T02:28:46.551Z,85.30
2019-05-02T02:31:25.304Z,85.24
2019-05-02T02:33:59.722Z,85.14
2019-05-02T02:36:34.627Z,85.07
2019-05-02T02:39:14.586Z,84.85
2019-05-02T02:41:45.319Z,84.56
2019-05-02T02:44:39.844Z,84.23
2019-05-02T02:47:18.759Z,84.18
2019-05-02T02:49:45.773Z,84.17
2019-05-02T02:52:18.442Z,84.15
2019-05-02T02:54:51.084Z,84.01
2019-05-02T02:57:27.933Z,84.08
2019-05-02T03:00:06.732Z,84.19
2019-05-02T03:02:33.304Z,84.17
2019-05-02T03:05:08.690Z,84.14
2019-05-02T03:07:41.385Z,84.04
2019-05-02T03:10:14.169Z,83.93
2019-05-02T03:12:49.646Z,83.62
2019-05-02T03:15:27.866Z,83.33
2019-05-02T03:18:00.048Z,83.31
2019-05-02T03:20:40.149Z,83.35
2019-05-02T03:23:07.190Z,83.38
2019-05-02T03:25:50.487Z,83.45
2019-05-02T03:28:18.618Z,83.41
2019-05-02T03:30:49.210Z,83.21
2019-05-02T03:33:22.349Z,83.03
2019-05-02T03:35:56.362Z,82.30
2019-05-02T03:38:32.385Z,82.02
2019-05-02T03:41:04.455Z,82.21
2019-05-02T03:43:37.122Z,81.89
2019-05-02T03:46:13.495Z,81.52
2019-05-02T03:48:44.426Z,81.06
2019-05-02T03:51:21.439Z,80.00
2019-05-02T03:53:51.524Z,79.36
2019-05-02T03:56:24.308Z,78.85
2019-05-02T03:58:58.174Z,78.55
2019-05-02T04:01:34.835Z,78.35
2019-05-02T04:04:07.462Z,78.13
2019-05-02T04:06:40.293Z,78.03
2019-05-02T04:09:32.037Z,78.08
2019-05-02T04:12:11.781Z,77.96
2019-05-02T04:14:40.101Z,77.79
2019-05-02T04:17:13.495Z,77.91
2019-05-02T04:19:46.476Z,77.42
2019-05-02T04:22:21.325Z,77.28
2019-05-02T04:24:54.836Z,77.21
2019-05-02T04:27:34.127Z,77.06
2019-05-02T04:30:09.721Z,77.32
2019-05-02T04:32:37.645Z,77.24
2019-05-02T04:35:10.325Z,76.26
2019-05-02T04:37:43.827Z,75.33
2019-05-02T04:40:18.232Z,74.68
2019-05-02T04:43:01.053Z,74.90
2019-05-02T04:45:35.905Z,74.76
2019-05-02T04:48:03.923Z,74.33
2019-05-02T04:50:34.073Z,73.68
2019-05-02T04:53:08.614Z,74.04
2019-05-02T04:55:42.096Z,73.76
2019-05-02T04:58:24.263Z,73.19
2019-05-02T05:00:53.568Z,73.20
2019-05-02T05:03:24.027Z,73.10
2019-05-02T05:05:59.364Z,73.05
2019-05-02T05:08:31.922Z,72.74
2019-05-02T05:11:04.783Z,72.88
2019-05-02T05:13:37.597Z,72.72
2019-05-02T05:16:15.351Z,72.45
2019-05-02T05:18:49.384Z,72.68
2019-05-02T05:21:19.667Z,72.60
2019-05-02T05:24:00.979Z,72.49
2019-05-02T05:26:33.791Z,72.32
2019-05-02T05:29:08.215Z,71.21
2019-05-02T05:31:41.019Z,69.04
2019-05-02T05:34:13.740Z,69.03
2019-05-02T05:36:48.147Z,68.96
2019-05-02T05:39:20.989Z,68.43
2019-05-02T05:41:55.098Z,69.06
2019-05-02T05:44:32.465Z,68.89
2019-05-02T05:47:02.831Z,69.53
2019-05-02T05:49:37.513Z,69.52
2019-05-02T05:52:10.525Z,69.97
2019-05-02T05:54:43.309Z,70.25
2019-05-02T05:57:20.826Z,70.40
2019-05-02T05:59:50.922Z,70.58
2019-05-02T06:02:23.620Z,70.90
2019-05-02T06:05:02.538Z,71.34
2019-05-02T06:07:33.099Z,71.26
2019-05-02T06:10:07.944Z,71.49
2019-05-02T06:12:40.153Z,71.88
2019-05-02T06:15:12.981Z,72.41
2019-05-02T06:17:45.623Z,72.24
2019-05-02T06:20:18.494Z,72.09
2019-05-02T06:22:55.084Z,72.16
2019-05-02T06:25:34.191Z,71.59
2019-05-02T06:28:05.462Z,70.47
2019-05-02T06:30:36.182Z,68.82
2019-05-02T06:33:08.872Z,66.80
2019-05-02T06:35:41.848Z,66.08
2019-05-02T06:38:14.475Z,65.48
2019-05-02T06:40:47.916Z,65.85
2019-05-02T06:43:21.211Z,65.61
2019-05-02T06:45:53.989Z,65.09
2019-05-02T06:48:26.678Z,63.95
2019-05-02T06:51:00.739Z,63.71
2019-05-02T06:53:35.105Z,64.40
2019-05-02T06:56:07.937Z,64.51
2019-05-02T06:58:43.299Z,64.07
2019-05-02T07:01:20.635Z,64.33
2019-05-02T07:03:50.528Z,64.30
2019-05-02T07:06:23.543Z,63.92
2019-05-02T07:08:59.669Z,64.17
2019-05-02T07:11:33.215Z,64.12
2019-05-02T07:14:13.675Z,64.58
2019-05-02T07:16:43.299Z,64.92
2019-05-02T07:19:36.084Z,65.24
2019-05-02T07:22:10.017Z,65.47
2019-05-02T07:24:42.839Z,66.21
2019-05-02T07:27:15.572Z,66.10
2019-05-02T07:29:52.184Z,65.91
2019-05-02T07:32:24.655Z,65.91
2019-05-02T07:34:57.811Z,65.28
2019-05-02T07:37:31.902Z,64.92
2019-05-02T07:40:06.544Z,65.02
2019-05-02T07:42:41.834Z,64.23
2019-05-02T07:45:15.991Z,63.60
2019-05-02T07:47:48.708Z,63.59
2019-05-02T07:50:21.692Z,63.25
2019-05-02T07:52:54.445Z,62.32
2019-05-02T07:55:30.541Z,61.13
2019-05-02T07:58:07.010Z,61.22
2019-05-02T08:00:37.113Z,61.47
2019-05-02T08:03:10.783Z,61.02
2019-05-02T08:05:43.477Z,61.08
2019-05-02T08:08:16.141Z,60.85
2019-05-02T08:10:53.862Z,61.49
2019-05-02T08:13:23.755Z,61.38
2019-05-02T08:15:58.373Z,62.05
2019-05-02T08:18:31.752Z,62.28
2019-05-02T08:21:04.768Z,62.53
2019-05-02T08:23:37.555Z,61.67
2019-05-02T08:26:10.222Z,61.77
2019-05-02T08:28:46.959Z,61.97
2019-05-02T08:31:20.861Z,62.36
2019-05-02T08:33:53.175Z,62.36
2019-05-02T08:36:25.868Z,61.99
2019-05-02T08:38:58.634Z,61.79
2019-05-02T08:41:31.923Z,61.65
2019-05-02T08:44:04.709Z,60.83
2019-05-02T08:46:37.400Z,61.09
2019-05-02T08:49:14.200Z,60.86
2019-05-02T08:51:44.496Z,61.11
2019-05-02T08:54:17.167Z,61.05
2019-05-02T08:56:53.340Z,60.30
2019-05-02T08:59:26.221Z,60.91
2019-05-02T09:01:59.603Z,60.72
2019-05-02T09:04:32.401Z,60.09
2019-05-02T09:07:05.035Z,60.18
2019-05-02T09:09:37.863Z,59.85
2019-05-02T09:12:13.253Z,60.02
2019-05-02T09:14:44.962Z,59.86
2019-05-02T09:17:17.583Z,59.35
2019-05-02T09:20:00.285Z,59.68
2019-05-02T09:22:26.571Z,60.00
2019-05-02T09:25:02.113Z,59.56
2019-05-02T09:27:34.793Z,59.54
2019-05-02T09:30:17.099Z,59.50
2019-05-02T09:32:47.646Z,59.74
2019-05-02T09:35:22.951Z,59.23
2019-05-02T09:37:55.346Z,59.50
2019-05-02T09:40:28.018Z,59.28
2019-05-02T09:43:02.824Z,59.29
2019-05-02T09:45:37.511Z,59.39
2019-05-02T09:48:12.577Z,59.00
2019-05-02T09:50:45.803Z,58.05
2019-05-02T09:53:20.761Z,58.56
2019-05-02T09:55:57.713Z,58.05
2019-05-02T09:58:28.974Z,58.03
2019-05-02T10:01:03.288Z,57.96
2019-05-02T10:03:35.905Z,57.93
2019-05-02T10:06:16.443Z,57.67
2019-05-02T10:08:46.344Z,56.91
2019-05-02T10:11:22.499Z,56.01
2019-05-02T10:13:55.293Z,56.09
2019-05-02T10:16:27.448Z,56.00
2019-05-02T10:19:09.516Z,55.81
2019-05-02T10:21:35.975Z,56.33
2019-05-02T10:24:08.869Z,55.58
2019-05-02T10:26:42.041Z,55.81
2019-05-02T10:29:15.147Z,55.32
2019-05-02T10:31:47.931Z,55.37
2019-05-02T10:34:22.683Z,55.47
2019-05-02T10:36:58.951Z,54.72
2019-05-02T10:39:36.135Z,54.98
2019-05-02T10:42:03.664Z,53.58
2019-05-02T10:44:36.695Z,54.55
2019-05-02T10:47:09.533Z,55.01
2019-05-02T10:49:43.756Z,55.14
2019-05-02T10:52:16.532Z,55.08
2019-05-02T10:54:49.213Z,54.96
2019-05-02T10:57:22.025Z,54.79
2019-05-02T10:59:56.240Z,55.01
2019-05-02T11:02:36.146Z,54.38
2019-05-02T11:05:11.982Z,54.54
2019-05-02T11:07:44.789Z,54.32
2019-05-02T11:10:19.325Z,53.83
2019-05-02T11:13:09.746Z,52.05
2019-05-02T11:15:52.505Z,53.67
2019-05-02T11:18:39.429Z,53.70
2019-05-02T11:21:06.818Z,54.20
2019-05-02T11:23:36.289Z,52.53
2019-05-02T11:26:16.339Z,52.96
2019-05-02T11:28:43.893Z,53.92
2019-05-02T11:31:16.777Z,54.32
2019-05-02T11:33:49.461Z,54.35
2019-05-02T11:36:22.502Z,54.80
2019-05-02T11:39:03.208Z,54.24
2019-05-02T11:41:31.743Z,53.96
2019-05-02T11:44:05.399Z,54.87
2019-05-02T11:46:42.934Z,55.57
2019-05-02T11:49:13.765Z,56.07
2019-05-02T11:51:47.183Z,56.05
2019-05-02T11:54:22.625Z,56.14
2019-05-02T11:56:55.155Z,56.94
2019-05-02T11:59:29.317Z,57.21
2019-05-02T12:02:17.507Z,57.42
2019-05-02T12:04:47.333Z,57.68
2019-05-02T12:07:18.602Z,57.33
2019-05-02T12:09:56.836Z,57.46
2019-05-02T12:12:27.203Z,57.07
2019-05-02T12:15:02.467Z,55.99
2019-05-02T12:17:35.211Z,55.61
2019-05-02T12:20:08.553Z,54.79
2019-05-02T12:22:41.977Z,55.14
2019-05-02T12:25:15.503Z,54.88
2019-05-02T12:27:48.177Z,54.32
2019-05-02T12:30:22.850Z,54.13
2019-05-02T12:32:57.087Z,54.27
2019-05-02T12:35:32.123Z,54.67
2019-05-02T12:38:04.603Z,54.96
2019-05-02T12:40:37.267Z,55.66
2019-05-02T12:43:11.836Z,55.75
2019-05-02T12:45:44.361Z,55.34
2019-05-02T12:48:17.060Z,55.54
2019-05-02T12:50:49.818Z,55.30
2019-05-02T12:53:23.105Z,55.19
2019-05-02T12:55:57.021Z,55.88
2019-05-02T12:58:29.707Z,55.52
2019-05-02T13:01:02.917Z,55.71
2019-05-02T13:03:37.259Z,55.32
2019-05-02T13:06:12.098Z,55.34
2019-05-02T13:08:52.502Z,55.62
2019-05-02T13:11:32.010Z,55.53
2019-05-02T13:14:04.570Z,55.48
2019-05-02T13:16:37.295Z,55.75
2019-05-02T13:19:11.928Z,56.01
2019-05-02T13:22:02.534Z,55.79
2019-05-02T13:24:36.740Z,55.35
2019-05-02T13:27:12.596Z,55.38
2019-05-02T13:29:45.736Z,54.54
2019-05-02T13:32:21.764Z,53.28
2019-05-02T13:35:12.869Z,53.41
2019-05-02T13:37:47.314Z,54.34
2019-05-02T13:40:22.724Z,55.28
2019-05-02T13:42:55.503Z,54.53
2019-05-02T13:45:33.086Z,54.12
2019-05-02T13:48:07.294Z,53.81
2019-05-02T13:50:40.084Z,54.08
2019-05-02T13:53:12.814Z,54.58
2019-05-02T13:55:49.639Z,54.06
2019-05-02T13:58:28.908Z,53.52
2019-05-02T14:00:56.586Z,53.92
2019-05-02T14:03:29.271Z,54.04
2019-05-02T14:06:02.952Z,54.54
2019-05-02T14:08:37.655Z,54.76
2019-05-02T14:11:10.014Z,54.75
2019-05-02T14:13:42.751Z,54.55
2019-05-02T14:16:15.391Z,53.89
2019-05-02T14:18:48.155Z,53.71
2019-05-02T14:21:22.407Z,53.42
2019-05-02T14:23:55.110Z,53.53
2019-05-02T14:26:30.576Z,52.97
2019-05-02T14:29:02.534Z,52.91
2019-05-02T14:31:36.781Z,53.63
2019-05-02T14:34:23.582Z,54.51
2019-05-02T14:36:59.237Z,54.32
2019-05-02T14:39:32.513Z,51.55
2019-05-02T14:42:05.512Z,53.02
2019-05-02T14:45:01.481Z,53.74
2019-05-02T14:47:18.200Z,53.89
2019-05-02T14:49:48.315Z,54.58
2019-05-02T14:52:22.141Z,54.08
2019-05-02T14:54:55.755Z,54.73
2019-05-02T14:57:28.607Z,54.29
2019-05-02T15:00:03.249Z,54.40
2019-05-02T15:02:48.784Z,53.33
2019-05-02T15:05:19.233Z,54.65
2019-05-02T15:07:56.933Z,54.36
2019-05-02T15:10:27.415Z,53.50
2019-05-02T15:13:01.931Z,52.76
2019-05-02T15:15:40.860Z,53.28
2019-05-02T15:18:15.832Z,51.57
2019-05-02T15:20:44.880Z,51.52
2019-05-02T15:23:19.835Z,50.47
2019-05-02T15:25:55.975Z,51.86
2019-05-02T15:28:30.579Z,49.46
2019-05-02T15:31:05.337Z,50.24
2019-05-02T15:33:39.554Z,47.92
2019-05-02T15:36:14.212Z,50.96
2019-05-02T15:38:47.614Z,47.51
2019-05-02T15:41:21.819Z,47.15
2019-05-02T15:43:54.658Z,43.85
2019-05-02T15:46:28.343Z,44.06
2019-05-02T15:49:01.862Z,46.50
2019-05-02T15:51:37.927Z,51.24
2019-05-02T15:54:12.517Z,51.29
2019-05-02T15:57:00.341Z,46.96
2019-05-02T15:59:41.681Z,46.20
2019-05-02T16:02:17.589Z,47.95
2019-05-02T16:04:52.127Z,51.30
2019-05-02T16:07:24.523Z,51.45
2019-05-02T16:10:01.163Z,51.34
2019-05-02T16:12:35.930Z,52.12
2019-05-02T16:15:13.440Z,48.87
2019-05-02T16:17:42.912Z,50.63
2019-05-02T16:20:17.172Z,48.85
2019-05-02T16:22:50.088Z,44.97
2019-05-02T16:25:24.488Z,43.59
2019-05-02T16:28:02.653Z,43.78
2019-05-02T16:30:32.551Z,42.99
2019-05-02T16:33:08.003Z,42.08
2019-05-02T16:35:39.659Z,42.63
2019-05-02T16:38:14.375Z,45.45
2019-05-02T16:40:47.158Z,45.98
2019-05-02T16:43:19.934Z,45.82
2019-05-02T16:45:52.638Z,46.93
2019-05-02T16:48:32.337Z,46.59
2019-05-02T16:51:02.172Z,50.03
2019-05-02T16:53:36.294Z,51.56
2019-05-02T16:56:09.066Z,50.94
2019-05-02T16:58:43.402Z,51.20
2019-05-02T17:01:24.628Z,53.32
2019-05-02T17:03:50.482Z,54.50
2019-05-02T17:06:25.988Z,55.11
2019-05-02T17:08:58.795Z,55.69
2019-05-02T17:11:35.886Z,55.73
2019-05-02T17:14:12.110Z,56.07
2019-05-02T17:16:42.378Z,56.27
2019-05-02T17:19:15.068Z,56.26
2019-05-02T17:21:54.015Z,55.61
2019-05-02T17:24:26.027Z,55.32
2019-05-02T17:26:56.327Z,54.53
2019-05-02T17:29:29.051Z,55.06
2019-05-02T17:32:02.232Z,55.62
2019-05-02T17:34:35.111Z,55.78
2019-05-02T17:37:11.512Z,56.08
2019-05-02T17:39:45.971Z,56.51
2019-05-02T17:42:17.016Z,57.00
2019-05-02T17:44:51.698Z,57.13
2019-05-02T17:47:25.230Z,57.25
2019-05-02T17:50:01.963Z,57.82
2019-05-02T17:52:38.629Z,58.21
2019-05-02T17:55:13.819Z,58.40
2019-05-02T17:57:46.552Z,58.76
2019-05-02T18:00:21.615Z,58.99
2019-05-02T18:02:54.474Z,59.54
2019-05-02T18:05:32.061Z,59.89
2019-05-02T18:08:01.460Z,60.30
2019-05-02T18:10:34.197Z,60.70
2019-05-02T18:13:07.241Z,61.01
2019-05-02T18:15:41.732Z,61.27
2019-05-02T18:18:14.331Z,61.58
2019-05-02T18:20:47.062Z,61.79
2019-05-02T18:23:24.079Z,62.05
2019-05-02T18:25:57.316Z,62.28
2019-05-02T18:28:28.432Z,62.46
2019-05-02T18:31:02.772Z,62.67
2019-05-02T18:33:35.954Z,62.97
2019-05-02T18:36:09.847Z,63.28
2019-05-02T18:38:42.461Z,63.08
2019-05-02T18:41:15.707Z,63.57
2019-05-02T18:43:48.399Z,63.80
2019-05-02T18:46:22.316Z,63.91
2019-05-02T18:48:55.287Z,64.17
2019-05-02T18:51:28.072Z,64.56
2019-05-02T18:54:04.270Z,64.92
2019-05-02T18:56:42.807Z,65.46
2019-05-02T18:59:09.374Z,65.69
2019-05-02T19:01:42.733Z,65.72
2019-05-02T19:04:15.651Z,65.97
2019-05-02T19:06:48.335Z,66.28
2019-05-02T19:09:22.881Z,66.70
2019-05-02T19:12:05.030Z,66.95
2019-05-02T19:14:29.757Z,67.15
2019-05-02T19:17:05.450Z,67.48
2019-05-02T19:19:38.099Z,67.77
2019-05-02T19:22:13.241Z,68.02
2019-05-02T19:24:45.192Z,68.17
2019-05-02T19:27:21.070Z,68.26
2019-05-02T19:29:54.823Z,68.29
2019-05-02T19:32:28.463Z,68.16
2019-05-02T19:35:06.833Z,68.06
2019-05-02T19:37:44.617Z,68.26
2019-05-02T19:40:20.067Z,68.17
2019-05-02T19:42:52.703Z,68.36
2019-05-02T19:45:25.863Z,68.30
2019-05-02T19:47:58.859Z,68.40
2019-05-02T19:50:43.506Z,68.41
2019-05-02T19:53:17.880Z,68.28
2019-05-02T19:55:47.546Z,68.67
2019-05-02T19:58:20.522Z,68.69
2019-05-02T20:00:53.198Z,68.84
2019-05-02T20:03:26.600Z,68.73
2019-05-02T20:06:02.467Z,68.93
2019-05-02T20:08:33.703Z,69.11
2019-05-02T20:11:06.574Z,68.89
2019-05-02T20:13:39.472Z,69.08
2019-05-02T20:16:17.272Z,68.85
2019-05-02T20:18:52.549Z,68.83
2019-05-02T20:21:28.054Z,68.75
2019-05-02T20:24:02.072Z,68.68
2019-05-02T20:26:35.862Z,68.17
2019-05-02T20:29:08.960Z,68.28
2019-05-02T20:31:41.894Z,68.26
2019-05-02T20:34:14.935Z,68.40
2019-05-02T20:36:47.604Z,68.30
2019-05-02T20:39:22.357Z,68.11
2019-05-02T20:41:54.829Z,68.17
2019-05-02T20:44:28.362Z,68.06
2019-05-02T20:47:02.623Z,68.12
2019-05-02T20:49:35.409Z,68.12
2019-05-02T20:52:08.095Z,67.95
2019-05-02T20:54:42.689Z,68.26
2019-05-02T20:57:15.794Z,68.03
2019-05-02T20:59:48.576Z,68.00
2019-05-02T21:02:21.865Z,67.74
2019-05-02T21:04:54.571Z,67.83
2019-05-02T21:07:33.061Z,67.62
2019-05-02T21:10:12.568Z,67.62
2019-05-02T21:12:45.497Z,67.55
2019-05-02T21:15:18.417Z,67.60
2019-05-02T21:17:51.108Z,67.58
2019-05-02T21:20:24.965Z,67.48
2019-05-02T21:22:57.650Z,67.71
2019-05-02T21:25:32.412Z,67.55
2019-05-02T21:28:04.684Z,67.64
2019-05-02T21:30:37.428Z,67.60
2019-05-02T21:33:17.488Z,67.78
2019-05-02T21:35:51.815Z,67.69
2019-05-02T21:38:24.567Z,67.66
2019-05-02T21:40:57.269Z,67.67
2019-05-02T21:43:31.646Z,67.55
2019-05-02T21:46:04.710Z,67.42
2019-05-02T21:48:37.330Z,67.09
2019-05-02T21:51:12.269Z,67.23
2019-05-02T21:54:04.816Z,67.27
2019-05-02T21:56:43.025Z,67.15
2019-05-02T21:59:15.902Z,67.41
2019-05-02T22:01:57.843Z,67.45
2019-05-02T22:04:31.835Z,67.57
2019-05-02T22:07:05.004Z,67.62
2019-05-02T22:09:38.701Z,67.61
2019-05-02T22:12:12.086Z,67.85
2019-05-02T22:14:45.686Z,67.75
2019-05-02T22:17:18.436Z,67.65
2019-05-02T22:19:52.406Z,67.61
2019-05-02T22:22:25.575Z,67.67
2019-05-02T22:24:58.258Z,67.79
2019-05-02T22:27:32.502Z,67.69
2019-05-02T22:30:08.539Z,67.69
2019-05-02T22:32:42.757Z,67.65
2019-05-02T22:35:15.747Z,67.57
2019-05-02T22:37:50.009Z,67.62
2019-05-02T22:40:22.737Z,67.74
2019-05-02T22:42:55.411Z,67.60
2019-05-02T22:45:28.198Z,67.70
2019-05-02T22:48:02.601Z,67.75
2019-05-02T22:50:36.099Z,67.83
2019-05-02T22:53:08.807Z,68.13
2019-05-02T22:55:42.555Z,68.38
2019-05-02T22:58:15.370Z,68.77
2019-05-02T23:00:48.063Z,68.91
2019-05-02T23:03:21.535Z,69.25
2019-05-02T23:05:55.257Z,69.58
2019-05-02T23:08:28.043Z,70.00
2019-05-02T23:11:01.135Z,70.41
2019-05-02T23:13:34.118Z,70.41
2019-05-02T23:16:07.156Z,70.64
2019-05-02T23:18:40.099Z,70.98
2019-05-02T23:21:12.962Z,71.21
2019-05-02T23:23:45.641Z,71.44
2019-05-02T23:26:27.586Z,71.64
2019-05-02T23:29:02.355Z,71.89
2019-05-02T23:31:36.068Z,71.96
2019-05-02T23:34:09.786Z,72.26
2019-05-02T23:36:42.473Z,72.54
2019-05-02T23:39:15.235Z,72.82
2019-05-02T23:41:47.924Z,72.93
2019-05-02T23:44:22.698Z,73.05
2019-05-02T23:46:56.100Z,73.22
2019-05-02T23:49:29.151Z,73.41
2019-05-02T23:52:02.258Z,73.37
2019-05-02T23:54:35.406Z,73.46
2019-05-02T23:57:08.091Z,73.59
2019-05-02T23:59:42.421Z,73.65
